createdAt,value
2018-01-01T00:00:03.444Z,1.8
2018-01-01T00:15:02.712Z,1.4
2018-01-01T00:30:25.763Z,1.4
2018-01-01T00:45:14.752Z,1.1
2018-01-01T01:00:03.016Z,1.2
2018-01-01T01:15:10.119Z,1.2
2018-01-01T01:30:09.345Z,1.1
2018-01-01T01:46:27.872Z,1.1
2018-01-01T02:00:03.038Z,0.8
2018-01-01T02:15:02.800Z,0.8
2018-01-01T02:30:06.297Z,0.4
2018-01-01T02:46:13.187Z,0.8
2018-01-01T03:00:14.229Z,1
2018-01-01T03:15:04.129Z,1.2
2018-01-01T03:30:04.165Z,1.4
2018-01-01T03:45:02.808Z,1.5
2018-01-01T04:00:04.986Z,1.6
2018-01-01T04:15:06.612Z,1.8
2018-01-01T04:30:21.205Z,1.9
2018-01-01T04:45:03.303Z,1.9
2018-01-01T05:00:04.700Z,2.1
2018-01-01T05:15:13.197Z,2.4
2018-01-01T05:30:38.308Z,2.3
2018-01-01T05:45:02.968Z,5.1
2018-01-01T06:00:11.580Z,6
2018-01-01T06:15:04.638Z,5.9
2018-01-01T06:30:05.159Z,5.9
2018-01-01T06:45:03.716Z,6.2
2018-01-01T07:15:03.610Z,6.4
2018-01-01T07:30:02.608Z,6.4
2018-01-01T07:45:04.113Z,6.2
2018-01-01T08:00:06.510Z,6.3
2018-01-01T08:16:04.851Z,6.2
2018-01-01T08:30:08.776Z,6.2
2018-01-01T08:45:09.110Z,6.3
2018-01-01T09:15:05.699Z,6.6
2018-01-01T09:30:10.179Z,6.8
2018-01-01T09:45:03.758Z,7
2018-01-01T10:00:02.891Z,7.2
2018-01-01T10:15:02.255Z,7.4
2018-01-01T11:00:02.666Z,7.6
2018-01-01T11:15:03.173Z,7.5
2018-01-01T11:30:02.639Z,7.5
2018-01-01T11:45:49.221Z,7.6
2018-01-01T12:01:36.748Z,7.7
2018-01-01T12:15:03.187Z,7.7
2018-01-01T12:30:12.836Z,7.6
2018-01-01T12:45:13.364Z,7.7
2018-01-01T13:00:02.790Z,7.8
2018-01-01T13:16:44.528Z,7.8
2018-01-01T13:30:09.887Z,7.6
2018-01-01T13:45:02.680Z,7.5
2018-01-01T14:00:03.206Z,7.4
2018-01-01T14:16:05.571Z,7.4
2018-01-01T14:30:03.590Z,6.9
2018-01-01T14:45:03.221Z,6.7
2018-01-01T15:00:02.620Z,6.4
2018-01-01T15:15:02.958Z,6.2
2018-01-01T15:30:09.417Z,5.6
2018-01-01T15:45:13.271Z,4.8
2018-01-01T16:15:03.246Z,3.6
2018-01-01T16:30:02.569Z,2.9
2018-01-01T16:45:03.029Z,2.7
2018-01-01T17:01:33.188Z,2.4
2018-01-01T17:15:02.833Z,2.4
2018-01-01T17:30:03.283Z,1.6
2018-01-01T17:45:02.670Z,1.6
2018-01-01T18:00:02.989Z,1.5
2018-01-01T18:15:02.583Z,1.4
2018-01-01T18:30:19.252Z,1.5
2018-01-01T18:45:02.687Z,1.1
2018-01-01T19:00:03.275Z,1.3
2018-01-01T19:15:49.692Z,1.3
2018-01-01T19:30:40.144Z,1.2
2018-01-01T19:45:19.031Z,1.4
2018-01-01T20:00:14.966Z,1.5
2018-01-01T20:15:48.445Z,1.8
2018-01-01T20:31:13.114Z,1.9
2018-01-01T20:45:03.857Z,1.8
2018-01-01T21:00:03.238Z,2.2
2018-01-01T21:15:02.775Z,2.8
2018-01-01T21:30:03.391Z,2.6
2018-01-01T22:00:03.749Z,2.6
2018-01-01T22:15:52.046Z,2.3
2018-01-01T22:30:03.118Z,2.4
2018-01-01T22:45:02.441Z,2.3
2018-01-01T23:00:03.126Z,2.4
2018-01-01T23:15:16.347Z,2.4
2018-01-01T23:30:02.786Z,2.5
2018-01-01T23:45:06.725Z,2.6
